Time;durP1;ratioP1;P1;durP2;ratioP2;P2;SDS_P1;SDS_P2;PMS_P1;PMS_P2;Temp;Humidity;BMP_temperature;BMP_pressure;BME280_temperature;BME280_humidity;BME280_pressure;Samples;Min_cycle;Max_cycle;Signal;HPM_P1;HPM_P2
2023/04/27 00:00:51;;;;;;;5.93;2.83;;;;;;;5.28;88.77;92797.81;5130690;27;20429;-71
2023/04/27 00:03:17;;;;;;;4.97;3.28;;;;;;;5.29;88.52;92796.06;5130510;27;20100;-70
2023/04/27 00:05:46;;;;;;;6.85;3.20;;;;;;;5.26;88.84;92797.22;5129583;27;20385;-70
2023/04/27 00:08:12;;;;;;;5.70;3.05;;;;;;;5.25;88.44;92795.66;5130321;27;20054;-70
2023/04/27 00:10:39;;;;;;;10.88;3.40;;;;;;;5.20;89.08;92801.28;5130304;27;20099;-70
2023/04/27 00:13:06;;;;;;;7.03;3.30;;;;;;;5.19;87.71;92809.91;5130225;27;20556;-70
2023/04/27 00:15:33;;;;;;;9.10;3.70;;;;;;;5.21;88.03;92804.63;5124477;27;20514;-70
2023/04/27 00:18:00;;;;;;;7.90;3.80;;;;;;;5.28;88.36;92807.22;5129928;27;20054;-70
2023/04/27 00:20:27;;;;;;;9.30;3.80;;;;;;;5.30;86.92;92811.16;5129730;27;20184;-70
2023/04/27 00:22:55;;;;;;;5.50;2.88;;;;;;;5.29;87.68;92798.63;5130044;27;20047;-70
2023/04/27 00:25:22;;;;;;;8.02;3.00;;;;;;;5.27;88.13;92803.88;5129839;27;20043;-69
2023/04/27 00:27:48;;;;;;;8.10;3.03;;;;;;;5.15;88.19;92807.94;5130358;27;20047;-70
2023/04/27 00:30:15;;;;;;;7.25;3.17;;;;;;;5.10;88.57;92805.16;5130204;27;20047;-70
2023/04/27 00:32:42;;;;;;;12.20;3.70;;;;;;;5.05;88.31;92811.59;5129716;27;20091;-70
2023/04/27 00:35:10;;;;;;;7.15;2.80;;;;;;;4.99;88.46;92819.19;5129734;27;20047;-70
2023/04/27 00:37:36;;;;;;;6.40;3.10;;;;;;;4.96;88.64;92810.16;5130045;27;20047;-70
2023/04/27 00:40:06;;;;;;;8.52;3.08;;;;;;;5.05;88.90;92808.25;5129744;27;20051;-70
2023/04/27 00:42:33;;;;;;;6.25;2.55;;;;;;;4.99;89.00;92799.59;5129611;27;20049;-70
2023/04/27 00:45:00;;;;;;;6.50;2.97;;;;;;;4.92;89.30;92814.03;5129751;27;20100;-69
2023/04/27 00:47:28;;;;;;;6.38;2.70;;;;;;;4.87;89.21;92816.34;5129592;27;20510;-69
2023/04/27 00:49:55;;;;;;;6.55;3.05;;;;;;;4.82;89.12;92807.50;5129099;27;20040;-69
2023/04/27 00:52:22;;;;;;;6.63;3.72;;;;;;;4.76;89.30;92815.88;5129770;27;20458;-69
2023/04/27 00:54:51;;;;;;;6.55;2.97;;;;;;;4.68;90.21;92821.88;5129953;27;20504;-70
2023/04/27 00:57:19;;;;;;;3.55;2.55;;;;;;;4.64;90.52;92824.97;5129703;27;20099;-69
2023/04/27 00:59:46;;;;;;;5.70;2.78;;;;;;;4.61;90.70;92808.31;5129693;27;20090;-69
2023/04/27 01:02:12;;;;;;;10.23;3.20;;;;;;;4.67;90.62;92812.66;5129825;27;20123;-69
2023/04/27 01:04:40;;;;;;;7.90;3.03;;;;;;;4.65;90.44;92829.88;5128146;27;20099;-69
2023/04/27 01:07:06;;;;;;;7.40;3.13;;;;;;;4.77;91.65;92829.41;5129781;27;20039;-69
2023/04/27 01:09:33;;;;;;;6.97;2.95;;;;;;;4.73;89.40;92828.19;5129633;27;20122;-69
2023/04/27 01:12:00;;;;;;;5.97;3.08;;;;;;;4.75;92.65;92833.88;5129237;27;20054;-69
2023/04/27 01:14:28;;;;;;;7.20;3.00;;;;;;;4.59;90.41;92823.00;5129651;27;20127;-69
2023/04/27 01:16:55;;;;;;;5.22;2.92;;;;;;;4.54;90.40;92838.78;5129335;27;20051;-70
2023/04/27 01:19:22;;;;;;;7.43;2.92;;;;;;;4.46;92.24;92841.44;5128500;27;20096;-69
2023/04/27 01:21:49;;;;;;;5.95;3.58;;;;;;;4.47;91.72;92837.13;5129092;27;20120;-70
2023/04/27 01:24:17;;;;;;;8.77;3.20;;;;;;;4.43;91.89;92836.72;5129055;27;20059;-69
2023/04/27 01:26:44;;;;;;;10.27;3.58;;;;;;;4.32;91.38;92839.72;5129073;27;20093;-70
2023/04/27 01:29:11;;;;;;;7.05;3.28;;;;;;;3.69;92.17;92734.28;5128961;27;20039;-70
2023/04/27 01:31:37;;;;;;;5.18;2.72;;;;;;;4.33;91.80;92833.69;5128523;27;20491;-69
2023/04/27 01:34:04;;;;;;;7.93;2.75;;;;;;;4.35;92.79;92836.84;5128747;27;20495;-70
2023/04/27 01:36:31;;;;;;;8.35;3.20;;;;;;;4.38;92.97;92833.94;5129297;27;20035;-69
2023/04/27 01:38:58;;;;;;;4.82;2.63;;;;;;;4.40;92.84;92842.94;5128874;27;20078;-69
2023/04/27 01:41:26;;;;;;;5.32;3.10;;;;;;;4.37;92.81;92832.34;5128463;27;20042;-69
2023/04/27 01:43:53;;;;;;;5.40;2.90;;;;;;;4.35;92.69;92841.94;5128780;27;20047;-70
2023/04/27 01:46:20;;;;;;;6.28;2.90;;;;;;;4.21;93.28;92839.22;5128091;27;20047;-70
2023/04/27 01:48:47;;;;;;;8.23;3.20;;;;;;;4.27;93.77;92846.13;5128905;27;20071;-69
2023/04/27 01:51:14;;;;;;;6.72;3.10;;;;;;;4.28;93.95;92846.94;5128974;27;20058;-69
2023/04/27 01:53:42;;;;;;;7.18;2.97;;;;;;;4.20;94.07;92845.28;5128524;27;20147;-69
2023/04/27 01:56:09;;;;;;;6.80;3.45;;;;;;;4.25;95.05;92848.09;5128367;27;20132;-70
2023/04/27 01:58:37;;;;;;;7.85;3.15;;;;;;;4.34;94.79;92838.59;5128519;27;20058;-70
2023/04/27 02:01:04;;;;;;;7.38;3.17;;;;;;;4.36;94.21;92843.50;5128370;27;20104;-70
2023/04/27 02:03:30;;;;;;;6.45;3.20;;;;;;;4.21;93.85;92846.09;5128532;27;20062;-69
2023/04/27 02:05:57;;;;;;;6.97;3.50;;;;;;;4.24;95.43;92846.50;5129004;27;20055;-69
2023/04/27 02:08:24;;;;;;;6.78;3.17;;;;;;;4.31;95.65;92846.59;5128359;27;20050;-69
2023/04/27 02:10:51;;;;;;;7.50;3.65;;;;;;;4.41;95.58;92844.53;5128062;27;20304;-69
2023/04/27 02:13:18;;;;;;;8.13;4.50;;;;;;;4.46;95.51;92846.53;5128486;27;20419;-70
2023/04/27 02:15:46;;;;;;;6.80;3.63;;;;;;;4.54;96.41;92848.19;5127742;27;20050;-69
2023/04/27 02:18:13;;;;;;;6.68;3.78;;;;;;;4.59;95.68;92845.09;5128321;27;20066;-69
2023/04/27 02:20:39;;;;;;;6.18;3.22;;;;;;;4.66;96.97;92856.91;5128162;27;20054;-70
2023/04/27 02:23:06;;;;;;;7.15;3.70;;;;;;;4.65;96.29;92850.25;5128114;28;20047;-69
2023/04/27 02:25:36;;;;;;;9.88;3.53;;;;;;;4.66;96.67;92856.91;5128253;28;20051;-70
2023/04/27 02:28:02;;;;;;;7.05;3.63;;;;;;;4.70;99.35;92853.97;5128237;28;20043;-69
2023/04/27 02:30:30;;;;;;;7.35;3.78;;;;;;;4.72;99.47;92854.59;5127988;28;20047;-69
2023/04/27 02:32:59;;;;;;;10.25;4.32;;;;;;;4.68;99.59;92860.03;5128303;28;20460;-69
2023/04/27 02:35:26;;;;;;;11.80;5.10;;;;;;;4.73;99.89;92863.81;5128261;28;20103;-69
2023/04/27 02:37:52;;;;;;;9.90;4.68;;;;;;;4.77;100.00;92855.59;5128055;28;20527;-69
2023/04/27 02:40:19;;;;;;;12.00;5.78;;;;;;;4.77;100.00;92857.38;5128277;28;20374;-69
2023/04/27 02:42:46;;;;;;;13.35;5.82;;;;;;;4.74;100.00;92862.81;5127864;28;20054;-69
2023/04/27 02:45:13;;;;;;;14.82;6.05;;;;;;;4.75;100.00;92856.75;5127800;28;20507;-69
2023/04/27 02:47:40;;;;;;;9.50;5.10;;;;;;;4.78;100.00;92861.50;5128160;28;20464;-69
2023/04/27 02:50:09;;;;;;;14.82;5.15;;;;;;;4.78;100.00;92867.34;5128255;28;20084;-69
2023/04/27 02:52:36;;;;;;;13.02;6.32;;;;;;;4.88;100.00;92872.16;5127817;28;20067;-69
2023/04/27 02:55:03;;;;;;;10.70;5.25;;;;;;;4.89;100.00;92870.38;5128079;28;20502;-69
2023/04/27 02:57:29;;;;;;;14.57;6.55;;;;;;;4.85;100.00;92869.97;5127980;28;20055;-69
2023/04/27 02:59:57;;;;;;;11.48;6.22;;;;;;;4.84;100.00;92873.50;5127692;28;20047;-70
2023/04/27 03:02:23;;;;;;;12.25;5.43;;;;;;;4.85;100.00;92876.84;5128220;28;20046;-70
2023/04/27 03:04:53;;;;;;;8.82;5.07;;;;;;;4.84;100.00;92885.41;5128076;28;20051;-70
2023/04/27 03:07:22;;;;;;;12.05;5.70;;;;;;;4.77;100.00;92862.47;5127371;28;20057;-70
2023/04/27 03:09:49;;;;;;;10.90;6.03;;;;;;;4.90;100.00;92877.03;5127932;28;20047;-69
2023/04/27 03:12:15;;;;;;;11.60;5.70;;;;;;;4.93;100.00;92886.88;5127938;28;20043;-70
2023/04/27 03:14:42;;;;;;;17.08;7.60;;;;;;;4.93;94.30;92884.34;5127494;28;20054;-70
2023/04/27 03:17:09;;;;;;;15.88;6.20;;;;;;;4.86;93.94;92888.59;5097829;28;20442;-69
2023/04/27 03:19:36;;;;;;;11.77;5.30;;;;;;;4.97;96.23;92889.84;5119332;28;20530;-69
2023/04/27 03:22:02;;;;;;;10.30;4.90;;;;;;;4.98;96.26;92892.22;5127456;28;20043;-70
2023/04/27 03:24:32;;;;;;;12.18;6.43;;;;;;;4.96;96.28;92901.81;5127524;28;20058;-69
2023/04/27 03:26:58;;;;;;;12.65;4.70;;;;;;;5.02;95.68;92902.81;5113879;28;20055;-69
2023/04/27 03:29:25;;;;;;;11.40;5.32;;;;;;;5.05;98.12;92905.78;5130011;27;20271;-69
2023/04/27 03:31:52;;;;;;;10.32;5.10;;;;;;;5.01;95.92;92908.88;5130878;27;20051;-70
2023/04/27 03:34:20;;;;;;;7.03;3.40;;;;;;;4.54;88.90;92904.91;5131107;27;20043;-69
2023/04/27 03:36:47;;;;;;;5.63;3.63;;;;;;;4.76;93.57;92899.84;5131673;27;20086;-69
2023/04/27 03:39:14;;;;;;;9.05;3.80;;;;;;;4.86;97.39;92899.53;5130869;27;20543;-69
2023/04/27 03:41:42;;;;;;;7.35;4.22;;;;;;;4.88;100.00;92899.34;5131092;27;20043;-69
2023/04/27 03:44:08;;;;;;;12.23;5.07;;;;;;;4.97;100.00;92905.13;5130877;27;20047;-69
2023/04/27 03:46:35;;;;;;;12.45;5.75;;;;;;;4.96;99.13;92906.88;5130898;27;20051;-69
2023/04/27 03:49:02;;;;;;;11.25;5.90;;;;;;;4.99;98.36;92910.81;5131002;27;20047;-69
2023/04/27 03:51:30;;;;;;;10.02;5.30;;;;;;;4.89;99.58;92900.94;5130594;27;20083;-69
2023/04/27 03:53:57;;;;;;;12.27;5.80;;;;;;;5.03;100.00;92912.00;5130794;27;20051;-69
2023/04/27 03:56:24;;;;;;;14.57;5.93;;;;;;;4.89;100.00;92896.63;5130444;27;20035;-69
2023/04/27 03:58:52;;;;;;;13.40;5.70;;;;;;;5.06;100.00;92912.44;5130693;27;20047;-69
2023/04/27 04:01:20;;;;;;;10.90;6.68;;;;;;;5.08;96.94;92925.00;5130443;27;20043;-69
2023/04/27 04:03:47;;;;;;;10.10;5.80;;;;;;;5.08;98.63;92930.88;5130561;27;20043;-69
2023/04/27 04:06:14;;;;;;;15.18;6.72;;;;;;;5.17;100.00;92923.91;5130357;27;20499;-69
2023/04/27 04:08:40;;;;;;;15.10;7.97;;;;;;;5.19;100.00;92934.69;5130356;27;20043;-69
2023/04/27 04:11:07;;;;;;;22.88;12.25;;;;;;;5.21;100.00;92932.75;5130364;27;20043;-69
2023/04/27 04:13:34;;;;;;;21.63;11.73;;;;;;;5.26;100.00;92936.50;5130484;27;20107;-69
2023/04/27 04:16:03;;;;;;;21.55;12.05;;;;;;;5.27;99.52;92945.72;5129933;27;20068;-69
2023/04/27 04:18:30;;;;;;;21.23;12.45;;;;;;;5.30;100.00;92943.59;5130410;27;20051;-69
2023/04/27 04:20:57;;;;;;;21.95;10.40;;;;;;;5.28;100.00;92955.72;5114458;27;20126;-69
2023/04/27 04:23:24;;;;;;;19.42;10.02;;;;;;;5.12;95.56;92940.69;5123841;27;20046;-70
2023/04/27 04:25:52;;;;;;;21.23;9.40;;;;;;;5.19;96.94;92944.09;5130103;27;20043;-69
2023/04/27 04:28:18;;;;;;;16.13;7.57;;;;;;;5.30;97.15;92946.16;5130220;27;20467;-69
2023/04/27 04:30:45;;;;;;;11.80;4.57;;;;;;;5.27;88.49;92955.91;5130029;27;20043;-69
2023/04/27 04:33:13;;;;;;;12.60;6.25;;;;;;;5.34;95.01;92959.31;5130243;27;20035;-70
2023/04/27 04:35:41;;;;;;;12.30;4.93;;;;;;;5.43;92.61;92965.06;5129527;27;20047;-70
2023/04/27 04:38:08;;;;;;;10.60;4.75;;;;;;;5.32;89.49;92964.56;5129820;27;20043;-70
2023/04/27 04:40:35;;;;;;;14.55;3.97;;;;;;;5.43;90.88;92970.94;5129492;27;20049;-70
2023/04/27 04:43:02;;;;;;;11.68;5.25;;;;;;;5.51;91.86;92969.22;5129902;27;20063;-69
2023/04/27 04:45:29;;;;;;;9.70;4.45;;;;;;;5.53;91.18;92960.44;5129594;27;20545;-70
2023/04/27 04:47:55;;;;;;;6.85;4.25;;;;;;;5.54;87.41;92974.75;5129826;27;20047;-70
2023/04/27 04:50:23;;;;;;;9.88;4.85;;;;;;;5.42;85.23;92979.53;5129410;27;20047;-70
2023/04/27 04:52:50;;;;;;;8.18;4.03;;;;;;;5.27;86.73;92973.75;5129770;27;20611;-70
2023/04/27 04:55:17;;;;;;;9.15;4.20;;;;;;;4.91;84.66;92980.47;5129485;27;20051;-70
2023/04/27 04:57:44;;;;;;;10.35;5.40;;;;;;;5.00;87.82;92984.44;5129295;27;20138;-70
2023/04/27 05:00:12;;;;;;;9.20;4.32;;;;;;;5.18;85.31;92995.97;5129565;27;20491;-70
2023/04/27 05:02:39;;;;;;;11.10;5.00;;;;;;;5.23;92.44;92968.19;5129534;27;20050;-70
2023/04/27 05:05:07;;;;;;;7.30;3.88;;;;;;;5.13;84.30;92999.06;5129305;27;20499;-70
2023/04/27 05:07:35;;;;;;;9.45;4.10;;;;;;;5.25;89.38;92996.84;5129663;27;20043;-69
2023/04/27 05:10:05;;;;;;;12.05;4.30;;;;;;;5.42;90.63;92988.94;5119494;27;20097;-69
2023/04/27 05:12:32;;;;;;;7.70;3.83;;;;;;;5.56;87.41;93000.81;5123665;27;20514;-70
2023/04/27 05:14:59;;;;;;;21.77;5.68;;;;;;;5.48;85.42;93001.72;5129524;27;20058;-69
2023/04/27 05:17:26;;;;;;;8.77;4.47;;;;;;;5.47;84.29;93005.25;5129230;27;20452;-69
2023/04/27 05:19:53;;;;;;;10.77;4.60;;;;;;;5.46;85.29;92995.25;5129580;27;20395;-70
2023/04/27 05:22:20;;;;;;;8.60;4.32;;;;;;;5.59;84.16;93007.31;5129401;27;20083;-71
2023/04/27 05:24:48;;;;;;;9.70;4.57;;;;;;;5.19;83.93;93005.22;5128926;27;20438;-70
2023/04/27 05:27:15;;;;;;;10.90;4.85;;;;;;;5.47;88.55;92999.38;5129194;27;20741;-70
2023/04/27 05:29:42;;;;;;;13.20;4.43;;;;;;;5.56;85.02;93003.34;5129014;27;20047;-70
2023/04/27 05:32:08;;;;;;;10.27;4.60;;;;;;;5.61;85.54;93005.38;5129418;27;20455;-69
2023/04/27 05:34:35;;;;;;;12.02;4.43;;;;;;;5.58;82.61;93003.97;5128947;27;20083;-69
2023/04/27 05:37:02;;;;;;;9.95;4.28;;;;;;;5.82;85.46;93009.66;5129147;27;20116;-69
2023/04/27 05:39:29;;;;;;;13.88;5.22;;;;;;;5.99;85.75;93014.47;5128738;27;20051;-70
2023/04/27 05:41:57;;;;;;;14.27;5.03;;;;;;;6.09;86.62;93009.06;5128576;27;20043;-69
2023/04/27 05:44:27;;;;;;;9.88;4.97;;;;;;;6.27;84.60;93009.38;5129109;27;20082;-69
2023/04/27 05:46:54;;;;;;;14.88;5.20;;;;;;;6.47;84.60;93013.03;5128357;27;20523;-69
2023/04/27 05:49:21;;;;;;;10.55;4.00;;;;;;;6.17;79.50;93020.88;5128390;27;20051;-69
2023/04/27 05:51:48;;;;;;;6.82;3.92;;;;;;;5.95;79.65;93023.44;5128163;27;20047;-70
2023/04/27 05:54:15;;;;;;;10.93;4.82;;;;;;;6.14;84.85;93024.59;5128324;27;20054;-69
2023/04/27 05:56:41;;;;;;;12.05;4.18;;;;;;;6.26;80.09;93030.75;5128479;27;20039;-70
2023/04/27 05:59:10;;;;;;;10.88;4.40;;;;;;;6.43;81.07;93033.00;5128449;27;20043;-70
2023/04/27 06:01:37;;;;;;;14.38;4.57;;;;;;;6.46;77.46;93027.53;5128480;27;20404;-70
2023/04/27 06:04:04;;;;;;;12.77;4.80;;;;;;;6.63;81.03;93024.66;5128568;27;20043;-70
2023/04/27 06:06:32;;;;;;;12.52;4.78;;;;;;;6.72;80.14;93030.41;5128004;27;20053;-70
2023/04/27 06:08:59;;;;;;;16.65;7.63;;;;;;;6.97;82.57;93027.34;5128023;27;20047;-70
2023/04/27 06:11:26;;;;;;;26.13;14.85;;;;;;;7.11;79.68;93023.84;5128231;27;20047;-70
2023/04/27 06:13:52;;;;;;;18.65;10.40;;;;;;;7.33;82.21;93021.16;5127651;27;20056;-70
2023/04/27 06:16:21;;;;;;;12.73;6.18;;;;;;;7.45;78.35;93011.91;5128275;27;20096;-70
2023/04/27 06:18:48;;;;;;;12.80;6.18;;;;;;;7.62;78.39;93014.09;5128306;27;20070;-70
2023/04/27 06:21:15;;;;;;;15.13;6.45;;;;;;;7.80;77.52;93020.41;5128033;27;20047;-70
2023/04/27 06:23:41;;;;;;;13.13;6.32;;;;;;;7.69;75.52;93009.78;5127508;28;20064;-70
2023/04/27 06:26:08;;;;;;;11.43;5.72;;;;;;;7.58;73.05;93023.13;5127144;28;20055;-70
2023/04/27 06:28:35;;;;;;;12.55;4.72;;;;;;;7.19;76.95;93003.22;5128385;28;20035;-70
2023/04/27 06:31:02;;;;;;;12.70;4.60;;;;;;;6.95;76.21;93025.00;5127737;28;20092;-70
2023/04/27 06:33:30;;;;;;;10.15;4.00;;;;;;;7.12;77.39;93012.66;5128213;28;20130;-70
2023/04/27 06:35:57;;;;;;;9.18;4.07;;;;;;;7.24;75.28;93012.09;5127669;28;20044;-70
2023/04/27 06:38:24;;;;;;;10.27;3.65;;;;;;;7.25;76.16;93008.53;5127943;28;20043;-69
2023/04/27 06:40:52;;;;;;;8.35;3.83;;;;;;;6.90;74.02;93002.56;5128011;28;20043;-69
2023/04/27 06:43:19;;;;;;;7.57;4.03;;;;;;;7.02;74.92;93007.13;5127739;28;20619;-69
2023/04/27 06:45:45;;;;;;;7.10;3.80;;;;;;;7.01;74.50;93011.47;5127776;28;20049;-70
2023/04/27 06:48:12;;;;;;;7.40;3.33;;;;;;;7.25;76.08;93006.00;5128160;28;20447;-69
2023/04/27 06:50:40;;;;;;;5.43;2.88;;;;;;;7.41;74.95;92999.75;5127707;28;20047;-69
2023/04/27 06:53:07;;;;;;;8.27;3.70;;;;;;;7.73;75.01;92997.41;5127865;28;20052;-70
2023/04/27 06:55:34;;;;;;;12.23;6.00;;;;;;;7.71;73.62;93002.72;5127695;28;20488;-70
2023/04/27 06:58:01;;;;;;;12.60;6.53;;;;;;;7.89;72.15;92996.22;5127816;28;20043;-70
2023/04/27 07:00:27;;;;;;;8.88;3.90;;;;;;;7.64;68.72;92996.78;5127845;28;20051;-70
2023/04/27 07:02:54;;;;;;;6.43;3.53;;;;;;;7.71;71.63;93000.16;5128232;27;20043;-70
2023/04/27 07:05:21;;;;;;;7.00;3.72;;;;;;;7.79;71.17;93000.94;5131415;27;20043;-70
2023/04/27 07:07:50;;;;;;;7.00;4.00;;;;;;;7.89;69.50;92980.88;5132009;27;20044;-70
2023/04/27 07:10:16;;;;;;;5.13;3.10;;;;;;;7.53;68.85;92987.94;5131706;27;20510;-70
2023/04/27 07:12:43;;;;;;;6.88;3.05;;;;;;;7.65;69.93;92992.47;5131561;27;20051;-70
2023/04/27 07:15:10;;;;;;;6.78;3.22;;;;;;;7.42;67.63;92981.66;5131384;27;20558;-70
2023/04/27 07:17:37;;;;;;;5.80;3.30;;;;;;;7.46;68.52;92993.03;5131303;27;20495;-70
2023/04/27 07:20:07;;;;;;;7.18;4.22;;;;;;;7.62;69.01;92991.91;5131190;27;20055;-70
2023/04/27 07:22:34;;;;;;;5.97;3.00;;;;;;;7.75;68.45;92990.31;5131079;27;20045;-70
2023/04/27 07:25:03;;;;;;;5.18;3.00;;;;;;;7.78;67.93;92992.47;5131150;27;20088;-70
2023/04/27 07:27:30;;;;;;;6.30;2.95;;;;;;;7.94;68.08;92998.97;5131302;27;20047;-70
2023/04/27 07:29:57;;;;;;;6.03;3.42;;;;;;;8.11;68.44;92999.31;5131305;27;20079;-70
2023/04/27 07:32:24;;;;;;;4.75;2.97;;;;;;;7.74;70.50;92992.06;5131332;27;20051;-70
2023/04/27 07:34:52;;;;;;;5.78;3.33;;;;;;;7.82;69.53;92993.66;5131377;27;20092;-70
2023/04/27 07:37:19;;;;;;;6.65;3.33;;;;;;;7.94;67.50;92990.50;5130653;27;20608;-70
2023/04/27 07:39:46;;;;;;;5.10;3.25;;;;;;;7.88;67.17;93000.53;5131056;27;20070;-70
2023/04/27 07:42:15;;;;;;;6.25;3.30;;;;;;;7.96;66.85;92991.88;5130706;27;20164;-70
2023/04/27 07:44:42;;;;;;;6.82;2.60;;;;;;;7.87;67.48;92998.19;5131043;27;20130;-71
2023/04/27 07:47:09;;;;;;;5.47;2.90;;;;;;;7.97;67.45;92995.22;5130795;27;20086;-70
2023/04/27 07:49:36;;;;;;;6.03;3.80;;;;;;;8.02;67.00;92990.28;5130855;27;20047;-70
2023/04/27 07:52:03;;;;;;;6.35;2.90;;;;;;;8.00;67.47;92994.81;5130850;27;20043;-70
2023/04/27 07:54:30;;;;;;;5.63;2.67;;;;;;;7.98;66.33;92987.34;5130872;27;20483;-70
2023/04/27 07:56:57;;;;;;;5.55;3.30;;;;;;;8.08;68.53;92992.06;5130723;27;20043;-70
2023/04/27 07:59:28;;;;;;;7.00;3.63;;;;;;;8.09;65.48;93000.50;5130715;27;20047;-70
2023/04/27 08:01:55;;;;;;;6.97;3.53;;;;;;;8.15;65.89;93004.84;5130422;27;20055;-70
2023/04/27 08:04:21;;;;;;;6.53;3.40;;;;;;;8.35;67.28;92998.88;5130211;27;20100;-70
2023/04/27 08:06:48;;;;;;;15.50;7.38;;;;;;;8.54;67.57;92998.09;5125354;27;20056;-70
2023/04/27 08:09:15;;;;;;;12.25;5.82;;;;;;;8.74;66.99;93004.91;5129360;27;20048;-70
2023/04/27 08:11:42;;;;;;;19.00;9.15;;;;;;;8.92;66.95;93006.81;5115925;27;20035;-70
2023/04/27 08:14:12;;;;;;;6.13;3.10;;;;;;;8.80;65.63;92993.84;5129504;27;20499;-70
2023/04/27 08:16:41;;;;;;;6.38;3.30;;;;;;;8.68;64.57;93001.38;5130862;27;20110;-70
2023/04/27 08:19:08;;;;;;;4.25;3.00;;;;;;;8.93;65.94;93008.38;5130191;27;20069;-70
2023/04/27 08:21:35;;;;;;;6.10;3.67;;;;;;;8.74;66.23;93007.47;5129991;27;20047;-70
2023/04/27 08:24:02;;;;;;;6.10;2.92;;;;;;;8.36;66.05;93008.13;5130139;27;20051;-70
2023/04/27 08:26:28;;;;;;;5.45;2.85;;;;;;;8.23;68.20;93014.06;5130116;27;20051;-70
2023/04/27 08:28:56;;;;;;;8.20;3.33;;;;;;;8.22;67.02;92971.56;5130013;27;20058;-70
2023/04/27 08:31:23;;;;;;;8.57;3.88;;;;;;;8.51;66.34;93006.13;5130137;27;20051;-70
2023/04/27 08:33:52;;;;;;;9.48;4.03;;;;;;;8.36;67.18;92996.13;5129786;27;20043;-70
2023/04/27 08:36:19;;;;;;;5.07;3.00;;;;;;;8.75;69.11;93011.59;5121959;27;20150;-70
2023/04/27 08:38:46;;;;;;;6.05;2.92;;;;;;;8.94;66.93;93016.84;5129891;27;20103;-70
2023/04/27 08:41:18;;;;;;;5.43;2.55;;;;;;;8.98;64.99;93020.56;5129652;27;20179;-70
2023/04/27 08:43:45;;;;;;;5.97;3.05;;;;;;;9.33;66.50;93004.81;5129697;27;20379;-70
2023/04/27 08:46:12;;;;;;;4.15;2.33;;;;;;;9.26;66.60;93006.63;5102986;27;20058;-70
2023/04/27 08:48:39;;;;;;;5.55;2.30;;;;;;;9.52;64.00;93007.44;5129382;27;20386;-70
2023/04/27 08:51:14;;;;;;;5.43;2.58;;;;;;;9.26;64.87;93005.84;5129724;27;20051;-70
2023/04/27 08:53:47;;;;;;;5.70;3.38;;;;;;;9.42;64.74;93004.56;5126716;27;20054;-70
2023/04/27 08:56:14;;;;;;;4.43;2.80;;;;;;;9.65;62.93;93001.44;5118519;27;20092;-70
2023/04/27 08:58:41;;;;;;;8.45;2.78;;;;;;;10.00;63.78;93003.53;5129360;27;20491;-70
2023/04/27 09:01:08;;;;;;;7.43;4.18;;;;;;;9.33;66.33;92994.56;5119564;27;20541;-70
2023/04/27 09:03:36;;;;;;;6.85;3.80;;;;;;;9.09;62.80;93011.47;5123899;27;20092;-70
2023/04/27 09:06:03;;;;;;;5.05;2.55;;;;;;;8.81;63.53;93012.56;5129491;27;20083;-70
2023/04/27 09:08:41;;;;;;;4.43;2.65;;;;;;;8.80;63.18;93011.00;5129545;27;20143;-70
2023/04/27 09:11:08;;;;;;;6.32;3.40;;;;;;;9.52;64.61;93002.31;5129298;27;20053;-70
2023/04/27 09:13:35;;;;;;;6.68;3.30;;;;;;;10.04;65.40;93003.88;5129612;27;20445;-70
2023/04/27 09:16:02;;;;;;;7.20;3.63;;;;;;;10.20;59.96;92976.91;5128743;27;20050;-70
2023/04/27 09:18:32;;;;;;;4.28;2.50;;;;;;;10.35;59.58;93006.56;5129144;27;20036;-70
2023/04/27 09:20:59;;;;;;;5.97;3.05;;;;;;;9.76;59.80;93002.53;5109477;27;20058;-70
2023/04/27 09:23:27;;;;;;;5.18;2.50;;;;;;;9.79;60.72;93003.91;5108417;28;20040;-70
2023/04/27 09:25:56;;;;;;;4.95;2.67;;;;;;;10.01;57.46;93002.53;5108185;28;20048;-70
2023/04/27 09:28:24;;;;;;;5.95;2.67;;;;;;;10.56;61.81;92995.16;5127780;27;20039;-70
2023/04/27 09:30:53;;;;;;;5.70;2.35;;;;;;;10.10;58.41;92987.66;5123761;27;20057;-70
2023/04/27 09:33:23;;;;;;;7.03;2.60;;;;;;;10.78;60.66;92987.00;5127942;27;20047;-70
2023/04/27 09:35:50;;;;;;;5.55;2.42;;;;;;;11.20;58.58;92986.28;5128751;27;20043;-70
2023/04/27 09:38:18;;;;;;;6.30;2.63;;;;;;;10.99;58.82;92984.94;5128873;27;20053;-70
2023/04/27 09:40:45;;;;;;;5.07;2.45;;;;;;;11.17;58.19;92986.69;5128407;27;20055;-70
2023/04/27 09:43:14;;;;;;;5.35;3.35;;;;;;;10.64;61.93;92976.09;5118966;27;20043;-70
2023/04/27 09:45:42;;;;;;;6.90;2.30;;;;;;;10.85;62.16;92966.34;5127698;27;20046;-70
2023/04/27 09:48:09;;;;;;;4.20;2.45;;;;;;;11.19;56.82;92969.25;5128722;27;20043;-70
2023/04/27 09:50:37;;;;;;;4.97;2.83;;;;;;;11.50;58.35;92970.78;5128230;27;20051;-70
2023/04/27 09:53:08;;;;;;;4.25;2.00;;;;;;;11.75;56.54;92966.47;5128508;27;20403;-70
2023/04/27 09:55:41;;;;;;;4.07;2.08;;;;;;;11.73;55.80;92966.69;5127177;27;20039;-70
2023/04/27 09:58:46;;;;;;;6.72;2.53;;;;;;;11.35;54.26;92966.06;5128830;27;20434;-70
2023/04/27 10:01:25;;;;;;;6.30;2.92;;;;;;;10.62;56.30;92973.72;5123873;27;20051;-71
2023/04/27 10:04:04;;;;;;;7.05;2.65;;;;;;;11.16;58.53;92965.34;5128249;27;20043;-71
2023/04/27 10:06:57;;;;;;;4.05;2.20;;;;;;;11.44;55.93;92965.75;5127772;27;20043;-70
2023/04/27 10:09:25;;;;;;;4.68;2.05;;;;;;;11.95;54.80;92973.84;5128150;27;20047;-71
2023/04/27 10:11:53;;;;;;;5.05;3.05;;;;;;;11.86;53.36;92972.63;5127775;27;20039;-70
2023/04/27 10:14:23;;;;;;;5.28;2.38;;;;;;;12.23;52.82;92969.06;5127655;27;20039;-70
2023/04/27 10:16:51;;;;;;;5.03;2.25;;;;;;;12.58;56.41;92957.16;5101486;27;20054;-71
2023/04/27 10:19:19;;;;;;;5.43;1.80;;;;;;;13.29;54.49;92967.19;5114637;27;20578;-71
2023/04/27 10:21:59;;;;;;;4.75;2.00;;;;;;;13.68;48.68;92971.72;5128102;27;20071;-71
2023/04/27 10:24:35;;;;;;;5.47;1.73;;;;;;;13.69;47.43;92968.13;5127910;27;20499;-71
2023/04/27 10:27:04;;;;;;;;;;;;;;;14.08;50.40;92970.00;5128466;28;20047;-71
2023/04/27 10:29:38;;;;;;;7.30;2.65;;;;;;;13.02;48.66;92978.09;5121608;28;19972;-71
2023/04/27 10:32:10;;;;;;;6.05;2.85;;;;;;;13.72;49.81;92972.03;5128075;28;20134;-71
2023/04/27 10:34:38;;;;;;;5.95;1.70;;;;;;;13.95;48.28;92957.41;5126997;28;20079;-71
2023/04/27 10:37:06;;;;;;;3.83;1.95;;;;;;;14.49;46.60;92966.38;5128906;27;20042;-71
2023/04/27 10:39:36;;;;;;;3.35;1.75;;;;;;;13.35;45.92;92963.69;5098191;27;20046;-70
2023/04/27 10:42:02;;;;;;;5.32;2.00;;;;;;;12.51;49.33;92959.84;5124578;27;20122;-70
2023/04/27 10:44:31;;;;;;;4.43;1.83;;;;;;;12.99;52.53;92968.22;5131850;27;20039;-71
2023/04/27 10:47:00;;;;;;;4.80;1.90;;;;;;;13.62;50.83;92952.03;5131791;27;20065;-70
2023/04/27 10:49:28;;;;;;;7.03;2.90;;;;;;;13.74;47.70;92960.47;5131987;27;20043;-71
2023/04/27 10:51:58;;;;;;;3.78;1.80;;;;;;;13.94;46.94;92942.91;5131964;27;20445;-70
2023/04/27 10:54:27;;;;;;;4.47;1.85;;;;;;;13.64;47.79;92960.31;5132072;27;20054;-71
2023/04/27 10:56:54;;;;;;;4.40;1.95;;;;;;;13.55;46.24;92974.59;5131117;27;20164;-71
2023/04/27 10:59:21;;;;;;;4.15;1.67;;;;;;;13.54;47.00;92965.28;5113881;27;20039;-71
2023/04/27 11:01:50;;;;;;;6.15;1.85;;;;;;;13.64;49.52;92965.47;5131425;27;20642;-71
2023/04/27 11:04:18;;;;;;;4.72;2.20;;;;;;;13.15;46.63;92968.50;5132341;27;20059;-71
2023/04/27 11:06:45;;;;;;;19.52;3.13;;;;;;;13.09;48.97;92950.38;5131020;27;20054;-70
2023/04/27 11:09:13;;;;;;;6.35;2.05;;;;;;;13.59;48.89;92953.28;5131968;27;20050;-71
2023/04/27 11:11:45;;;;;;;5.90;2.00;;;;;;;13.76;46.41;92957.66;5131206;27;20051;-71
2023/04/27 11:14:19;;;;;;;5.70;2.03;;;;;;;13.97;46.64;92966.47;5131759;27;20123;-71
2023/04/27 11:16:47;;;;;;;6.28;1.88;;;;;;;13.05;45.26;92964.72;5131531;27;20073;-71
2023/04/27 11:19:14;;;;;;;7.47;2.20;;;;;;;12.23;49.61;92953.63;5131290;27;20051;-71
2023/04/27 11:21:42;;;;;;;7.70;2.25;;;;;;;12.52;49.96;92956.25;5120326;27;20051;-71
2023/04/27 11:24:10;;;;;;;11.75;3.15;;;;;;;12.93;51.08;92953.69;5131172;27;20548;-71
2023/04/27 11:26:36;;;;;;;6.88;2.45;;;;;;;13.02;47.34;92965.19;5130821;27;20053;-71
2023/04/27 11:29:08;;;;;;;3.70;1.70;;;;;;;12.60;46.99;92955.91;5130975;27;20491;-71
2023/04/27 11:31:46;;;;;;;6.22;1.83;;;;;;;12.31;49.13;92939.63;5131059;27;20100;-71
2023/04/27 11:34:17;;;;;;;9.02;2.63;;;;;;;12.82;50.81;92955.28;5131095;27;20220;-71
2023/04/27 11:36:45;;;;;;;4.93;2.38;;;;;;;12.86;49.08;92953.03;5131343;27;20054;-71
2023/04/27 11:39:18;;;;;;;4.60;1.65;;;;;;;12.94;47.73;92960.41;5129706;27;20049;-71